sensor_id;sensor_type;location;lat;lon;timestamp;P1;durP1;ratioP1;P2;durP2;ratioP2
32094;SDS011;18608;53.688;10.748;2023-09-18T00:00:49;14.20;;;8.90;;
32094;SDS011;18608;53.688;10.748;2023-09-18T00:03:19;17.70;;;11.10;;
32094;SDS011;18608;53.688;10.748;2023-09-18T00:05:48;9.23;;;8.30;;
32094;SDS011;18608;53.688;10.748;2023-09-18T00:08:15;9.33;;;8.00;;
32094;SDS011;18608;53.688;10.748;2023-09-18T00:10:41;20.07;;;11.20;;
32094;SDS011;18608;53.688;10.748;2023-09-18T00:13:08;12.87;;;9.53;;
32094;SDS011;18608;53.688;10.748;2023-09-18T00:18:52;13.23;;;9.10;;
32094;SDS011;18608;53.688;10.748;2023-09-18T00:21:19;11.43;;;8.87;;
32094;SDS011;18608;53.688;10.748;2023-09-18T00:23:44;10.40;;;8.70;;
32094;SDS011;18608;53.688;10.748;2023-09-18T00:26:11;13.20;;;8.80;;
32094;SDS011;18608;53.688;10.748;2023-09-18T00:28:37;13.03;;;9.00;;
32094;SDS011;18608;53.688;10.748;2023-09-18T00:31:03;11.07;;;9.10;;
32094;SDS011;18608;53.688;10.748;2023-09-18T00:33:29;10.30;;;9.20;;
32094;SDS011;18608;53.688;10.748;2023-09-18T00:35:55;20.30;;;10.23;;
32094;SDS011;18608;53.688;10.748;2023-09-18T00:38:21;10.90;;;8.60;;
32094;SDS011;18608;53.688;10.748;2023-09-18T00:40:47;12.77;;;9.03;;
32094;SDS011;18608;53.688;10.748;2023-09-18T00:43:13;11.10;;;9.37;;
32094;SDS011;18608;53.688;10.748;2023-09-18T00:45:43;11.40;;;9.10;;
32094;SDS011;18608;53.688;10.748;2023-09-18T00:48:10;13.50;;;9.20;;
32094;SDS011;18608;53.688;10.748;2023-09-18T00:50:36;11.50;;;9.30;;
32094;SDS011;18608;53.688;10.748;2023-09-18T00:53:03;10.47;;;8.53;;
32094;SDS011;18608;53.688;10.748;2023-09-18T00:55:29;12.27;;;9.90;;
32094;SDS011;18608;53.688;10.748;2023-09-18T00:57:57;11.43;;;8.10;;
32094;SDS011;18608;53.688;10.748;2023-09-18T01:00:23;11.10;;;8.80;;
32094;SDS011;18608;53.688;10.748;2023-09-18T01:02:49;10.67;;;9.13;;
32094;SDS011;18608;53.688;10.748;2023-09-18T01:05:15;11.00;;;8.83;;
32094;SDS011;18608;53.688;10.748;2023-09-18T01:07:42;11.23;;;8.77;;
32094;SDS011;18608;53.688;10.748;2023-09-18T01:10:09;14.20;;;10.47;;
32094;SDS011;18608;53.688;10.748;2023-09-18T01:15:27;10.30;;;9.00;;
32094;SDS011;18608;53.688;10.748;2023-09-18T01:17:57;12.23;;;8.60;;
32094;SDS011;18608;53.688;10.748;2023-09-18T01:20:23;10.23;;;9.23;;
32094;SDS011;18608;53.688;10.748;2023-09-18T01:22:49;13.60;;;9.23;;
32094;SDS011;18608;53.688;10.748;2023-09-18T01:25:15;12.50;;;9.20;;
32094;SDS011;18608;53.688;10.748;2023-09-18T01:27:41;9.73;;;8.73;;
32094;SDS011;18608;53.688;10.748;2023-09-18T01:30:07;14.03;;;9.53;;
32094;SDS011;18608;53.688;10.748;2023-09-18T01:32:34;10.60;;;9.03;;
32094;SDS011;18608;53.688;10.748;2023-09-18T01:35:02;10.90;;;8.93;;
32094;SDS011;18608;53.688;10.748;2023-09-18T01:37:31;13.07;;;9.20;;
32094;SDS011;18608;53.688;10.748;2023-09-18T01:40:00;16.00;;;9.37;;
32094;SDS011;18608;53.688;10.748;2023-09-18T01:42:27;12.10;;;8.80;;
32094;SDS011;18608;53.688;10.748;2023-09-18T01:44:53;10.10;;;8.50;;
32094;SDS011;18608;53.688;10.748;2023-09-18T01:47:19;11.87;;;9.47;;
32094;SDS011;18608;53.688;10.748;2023-09-18T01:49:48;10.90;;;8.53;;
32094;SDS011;18608;53.688;10.748;2023-09-18T01:52:14;10.10;;;9.10;;
32094;SDS011;18608;53.688;10.748;2023-09-18T01:54:40;11.60;;;9.00;;
32094;SDS011;18608;53.688;10.748;2023-09-18T01:57:07;11.63;;;8.73;;
32094;SDS011;18608;53.688;10.748;2023-09-18T01:59:33;13.50;;;9.00;;
32094;SDS011;18608;53.688;10.748;2023-09-18T02:01:59;11.53;;;9.80;;
32094;SDS011;18608;53.688;10.748;2023-09-18T02:04:28;9.40;;;8.40;;
32094;SDS011;18608;53.688;10.748;2023-09-18T02:06:54;9.67;;;8.67;;
32094;SDS011;18608;53.688;10.748;2023-09-18T02:09:20;9.10;;;8.20;;
32094;SDS011;18608;53.688;10.748;2023-09-18T02:11:47;15.77;;;9.87;;
32094;SDS011;18608;53.688;10.748;2023-09-18T02:14:13;13.37;;;8.43;;
32094;SDS011;18608;53.688;10.748;2023-09-18T02:16:40;9.23;;;8.33;;
32094;SDS011;18608;53.688;10.748;2023-09-18T02:19:07;10.33;;;8.93;;
32094;SDS011;18608;53.688;10.748;2023-09-18T02:21:35;11.33;;;8.87;;
32094;SDS011;18608;53.688;10.748;2023-09-18T02:24:02;14.50;;;9.53;;
32094;SDS011;18608;53.688;10.748;2023-09-18T02:26:28;17.10;;;8.90;;
32094;SDS011;18608;53.688;10.748;2023-09-18T02:28:54;13.40;;;10.43;;
32094;SDS011;18608;53.688;10.748;2023-09-18T02:31:23;14.70;;;8.77;;
32094;SDS011;18608;53.688;10.748;2023-09-18T02:33:49;11.03;;;9.30;;
32094;SDS011;18608;53.688;10.748;2023-09-18T02:36:15;10.50;;;8.90;;
32094;SDS011;18608;53.688;10.748;2023-09-18T02:38:41;12.33;;;9.63;;
32094;SDS011;18608;53.688;10.748;2023-09-18T02:41:08;10.73;;;9.63;;
32094;SDS011;18608;53.688;10.748;2023-09-18T02:43:34;11.63;;;9.87;;
32094;SDS011;18608;53.688;10.748;2023-09-18T02:46:00;11.80;;;9.10;;
32094;SDS011;18608;53.688;10.748;2023-09-18T02:48:26;10.60;;;8.50;;
32094;SDS011;18608;53.688;10.748;2023-09-18T02:50:52;11.33;;;9.23;;
32094;SDS011;18608;53.688;10.748;2023-09-18T02:53:18;11.60;;;8.93;;
32094;SDS011;18608;53.688;10.748;2023-09-18T02:55:49;14.40;;;8.87;;
32094;SDS011;18608;53.688;10.748;2023-09-18T02:58:17;11.80;;;9.80;;
32094;SDS011;18608;53.688;10.748;2023-09-18T03:00:47;12.30;;;9.63;;
32094;SDS011;18608;53.688;10.748;2023-09-18T03:03:15;14.70;;;9.77;;
32094;SDS011;18608;53.688;10.748;2023-09-18T03:05:41;12.07;;;9.20;;
32094;SDS011;18608;53.688;10.748;2023-09-18T03:08:08;10.30;;;9.20;;
32094;SDS011;18608;53.688;10.748;2023-09-18T03:10:35;13.33;;;9.30;;
32094;SDS011;18608;53.688;10.748;2023-09-18T03:13:02;9.93;;;8.63;;
32094;SDS011;18608;53.688;10.748;2023-09-18T03:15:29;9.63;;;8.50;;
32094;SDS011;18608;53.688;10.748;2023-09-18T03:17:55;14.87;;;11.53;;
32094;SDS011;18608;53.688;10.748;2023-09-18T03:20:22;16.90;;;9.00;;
32094;SDS011;18608;53.688;10.748;2023-09-18T03:22:49;12.40;;;8.97;;
32094;SDS011;18608;53.688;10.748;2023-09-18T03:25:15;17.33;;;10.70;;
32094;SDS011;18608;53.688;10.748;2023-09-18T03:27:41;10.33;;;9.23;;
32094;SDS011;18608;53.688;10.748;2023-09-18T03:30:07;16.07;;;10.03;;
32094;SDS011;18608;53.688;10.748;2023-09-18T03:32:33;10.20;;;9.20;;
32094;SDS011;18608;53.688;10.748;2023-09-18T03:35:01;13.97;;;11.67;;
32094;SDS011;18608;53.688;10.748;2023-09-18T03:37:27;11.70;;;10.50;;
32094;SDS011;18608;53.688;10.748;2023-09-18T03:39:53;12.60;;;10.50;;
32094;SDS011;18608;53.688;10.748;2023-09-18T03:42:19;12.10;;;9.67;;
32094;SDS011;18608;53.688;10.748;2023-09-18T03:44:46;15.00;;;9.40;;
32094;SDS011;18608;53.688;10.748;2023-09-18T03:47:11;13.47;;;10.03;;
32094;SDS011;18608;53.688;10.748;2023-09-18T03:49:37;12.20;;;10.07;;
32094;SDS011;18608;53.688;10.748;2023-09-18T03:52:03;11.00;;;9.83;;
32094;SDS011;18608;53.688;10.748;2023-09-18T03:54:29;12.27;;;10.17;;
32094;SDS011;18608;53.688;10.748;2023-09-18T03:56:55;14.83;;;9.70;;
32094;SDS011;18608;53.688;10.748;2023-09-18T03:59:21;14.23;;;10.93;;
32094;SDS011;18608;53.688;10.748;2023-09-18T04:01:47;10.13;;;9.03;;
32094;SDS011;18608;53.688;10.748;2023-09-18T04:04:14;12.13;;;10.03;;
32094;SDS011;18608;53.688;10.748;2023-09-18T04:06:41;10.10;;;9.10;;
32094;SDS011;18608;53.688;10.748;2023-09-18T04:09:08;11.17;;;9.53;;
32094;SDS011;18608;53.688;10.748;2023-09-18T04:11:34;12.10;;;9.27;;
32094;SDS011;18608;53.688;10.748;2023-09-18T04:14:01;11.70;;;9.57;;
32094;SDS011;18608;53.688;10.748;2023-09-18T04:16:28;10.40;;;9.30;;
32094;SDS011;18608;53.688;10.748;2023-09-18T04:18:55;11.93;;;8.40;;
32094;SDS011;18608;53.688;10.748;2023-09-18T04:21:21;9.93;;;8.93;;
32094;SDS011;18608;53.688;10.748;2023-09-18T04:23:48;13.23;;;9.17;;
32094;SDS011;18608;53.688;10.748;2023-09-18T04:26:20;11.27;;;10.07;;
32094;SDS011;18608;53.688;10.748;2023-09-18T04:28:46;12.37;;;9.50;;
32094;SDS011;18608;53.688;10.748;2023-09-18T04:31:12;12.37;;;8.67;;
32094;SDS011;18608;53.688;10.748;2023-09-18T04:33:38;12.07;;;8.97;;
32094;SDS011;18608;53.688;10.748;2023-09-18T04:36:04;10.67;;;9.00;;
32094;SDS011;18608;53.688;10.748;2023-09-18T04:38:30;12.50;;;9.67;;
32094;SDS011;18608;53.688;10.748;2023-09-18T04:41:01;16.70;;;10.50;;
32094;SDS011;18608;53.688;10.748;2023-09-18T04:43:27;13.90;;;9.20;;
32094;SDS011;18608;53.688;10.748;2023-09-18T04:45:55;12.63;;;10.83;;
32094;SDS011;18608;53.688;10.748;2023-09-18T04:48:21;14.67;;;11.53;;
32094;SDS011;18608;53.688;10.748;2023-09-18T04:50:48;12.27;;;10.57;;
32094;SDS011;18608;53.688;10.748;2023-09-18T04:53:14;15.60;;;11.00;;
32094;SDS011;18608;53.688;10.748;2023-09-18T04:55:41;18.50;;;11.80;;
32094;SDS011;18608;53.688;10.748;2023-09-18T04:58:06;15.20;;;11.13;;
32094;SDS011;18608;53.688;10.748;2023-09-18T05:00:32;13.47;;;10.20;;
32094;SDS011;18608;53.688;10.748;2023-09-18T05:02:59;11.27;;;10.00;;
32094;SDS011;18608;53.688;10.748;2023-09-18T05:05:26;13.90;;;9.60;;
32094;SDS011;18608;53.688;10.748;2023-09-18T05:07:54;13.17;;;11.10;;
32094;SDS011;18608;53.688;10.748;2023-09-18T05:10:20;27.33;;;11.80;;
32094;SDS011;18608;53.688;10.748;2023-09-18T05:12:46;20.50;;;11.03;;
32094;SDS011;18608;53.688;10.748;2023-09-18T05:15:14;12.17;;;10.33;;
32094;SDS011;18608;53.688;10.748;2023-09-18T05:17:44;18.67;;;10.93;;
32094;SDS011;18608;53.688;10.748;2023-09-18T05:20:22;15.70;;;11.57;;
32094;SDS011;18608;53.688;10.748;2023-09-18T05:22:49;12.90;;;9.53;;
32094;SDS011;18608;53.688;10.748;2023-09-18T05:25:19;23.93;;;11.83;;
32094;SDS011;18608;53.688;10.748;2023-09-18T05:27:59;11.83;;;10.50;;
32094;SDS011;18608;53.688;10.748;2023-09-18T05:32:53;14.83;;;10.20;;
32094;SDS011;18608;53.688;10.748;2023-09-18T05:35:20;11.73;;;9.57;;
32094;SDS011;18608;53.688;10.748;2023-09-18T05:37:48;12.90;;;9.87;;
32094;SDS011;18608;53.688;10.748;2023-09-18T05:40:14;11.53;;;10.33;;
32094;SDS011;18608;53.688;10.748;2023-09-18T05:42:41;12.93;;;9.37;;
32094;SDS011;18608;53.688;10.748;2023-09-18T05:45:08;13.90;;;10.00;;
32094;SDS011;18608;53.688;10.748;2023-09-18T05:47:36;11.07;;;9.23;;
32094;SDS011;18608;53.688;10.748;2023-09-18T05:50:03;12.73;;;10.20;;
32094;SDS011;18608;53.688;10.748;2023-09-18T05:52:31;12.30;;;9.83;;
32094;SDS011;18608;53.688;10.748;2023-09-18T05:54:58;14.00;;;10.13;;
32094;SDS011;18608;53.688;10.748;2023-09-18T05:57:23;14.10;;;10.00;;
32094;SDS011;18608;53.688;10.748;2023-09-18T05:59:50;11.10;;;9.27;;
32094;SDS011;18608;53.688;10.748;2023-09-18T06:02:15;10.90;;;8.70;;
32094;SDS011;18608;53.688;10.748;2023-09-18T06:04:41;10.00;;;9.00;;
32094;SDS011;18608;53.688;10.748;2023-09-18T06:07:08;13.83;;;9.80;;
32094;SDS011;18608;53.688;10.748;2023-09-18T06:09:34;11.40;;;9.13;;
32094;SDS011;18608;53.688;10.748;2023-09-18T06:12:00;12.40;;;9.20;;
32094;SDS011;18608;53.688;10.748;2023-09-18T06:14:25;11.80;;;9.57;;
32094;SDS011;18608;53.688;10.748;2023-09-18T06:16:51;13.33;;;9.40;;
32094;SDS011;18608;53.688;10.748;2023-09-18T06:19:17;13.20;;;9.90;;
32094;SDS011;18608;53.688;10.748;2023-09-18T06:21:44;9.90;;;8.57;;
32094;SDS011;18608;53.688;10.748;2023-09-18T06:24:09;11.67;;;9.90;;
32094;SDS011;18608;53.688;10.748;2023-09-18T06:26:35;10.53;;;9.43;;
32094;SDS011;18608;53.688;10.748;2023-09-18T06:29:01;11.90;;;9.43;;
32094;SDS011;18608;53.688;10.748;2023-09-18T06:31:28;10.00;;;9.00;;
32094;SDS011;18608;53.688;10.748;2023-09-18T06:33:56;9.47;;;8.10;;
32094;SDS011;18608;53.688;10.748;2023-09-18T06:36:22;10.73;;;8.20;;
32094;SDS011;18608;53.688;10.748;2023-09-18T06:38:48;8.70;;;7.53;;
32094;SDS011;18608;53.688;10.748;2023-09-18T06:41:14;15.43;;;9.20;;
32094;SDS011;18608;53.688;10.748;2023-09-18T06:43:40;10.00;;;8.30;;
32094;SDS011;18608;53.688;10.748;2023-09-18T06:46:09;9.33;;;7.83;;
32094;SDS011;18608;53.688;10.748;2023-09-18T06:48:34;13.00;;;8.53;;
32094;SDS011;18608;53.688;10.748;2023-09-18T06:51:00;10.03;;;8.40;;
32094;SDS011;18608;53.688;10.748;2023-09-18T06:53:26;11.50;;;8.63;;
32094;SDS011;18608;53.688;10.748;2023-09-18T06:55:53;8.90;;;8.03;;
32094;SDS011;18608;53.688;10.748;2023-09-18T06:58:19;10.43;;;9.10;;
32094;SDS011;18608;53.688;10.748;2023-09-18T07:00:45;9.20;;;8.30;;
32094;SDS011;18608;53.688;10.748;2023-09-18T07:03:11;9.90;;;8.13;;
32094;SDS011;18608;53.688;10.748;2023-09-18T07:05:37;9.43;;;8.47;;
32094;SDS011;18608;53.688;10.748;2023-09-18T07:08:03;10.23;;;8.40;;
32094;SDS011;18608;53.688;10.748;2023-09-18T07:10:30;11.07;;;8.63;;
32094;SDS011;18608;53.688;10.748;2023-09-18T07:12:58;11.70;;;8.40;;
32094;SDS011;18608;53.688;10.748;2023-09-18T07:15:24;11.30;;;7.37;;
32094;SDS011;18608;53.688;10.748;2023-09-18T07:17:50;11.17;;;7.80;;
32094;SDS011;18608;53.688;10.748;2023-09-18T07:20:16;13.07;;;8.50;;
32094;SDS011;18608;53.688;10.748;2023-09-18T07:22:44;8.63;;;7.13;;
32094;SDS011;18608;53.688;10.748;2023-09-18T07:25:12;8.80;;;7.47;;
32094;SDS011;18608;53.688;10.748;2023-09-18T07:27:38;12.37;;;8.33;;
32094;SDS011;18608;53.688;10.748;2023-09-18T07:30:09;10.07;;;7.60;;
32094;SDS011;18608;53.688;10.748;2023-09-18T07:32:35;8.13;;;7.40;;
32094;SDS011;18608;53.688;10.748;2023-09-18T07:35:01;11.17;;;7.30;;
32094;SDS011;18608;53.688;10.748;2023-09-18T07:37:29;11.47;;;7.93;;
32094;SDS011;18608;53.688;10.748;2023-09-18T07:39:56;8.30;;;7.50;;
32094;SDS011;18608;53.688;10.748;2023-09-18T07:42:25;10.73;;;7.90;;
32094;SDS011;18608;53.688;10.748;2023-09-18T07:44:52;7.80;;;7.10;;
32094;SDS011;18608;53.688;10.748;2023-09-18T07:47:18;12.13;;;7.03;;
32094;SDS011;18608;53.688;10.748;2023-09-18T07:49:44;10.40;;;7.30;;
32094;SDS011;18608;53.688;10.748;2023-09-18T07:52:10;10.27;;;6.50;;
32094;SDS011;18608;53.688;10.748;2023-09-18T07:54:36;8.87;;;7.60;;
32094;SDS011;18608;53.688;10.748;2023-09-18T07:57:02;7.53;;;6.77;;
32094;SDS011;18608;53.688;10.748;2023-09-18T07:59:31;7.93;;;6.63;;
32094;SDS011;18608;53.688;10.748;2023-09-18T08:01:57;7.63;;;6.60;;
32094;SDS011;18608;53.688;10.748;2023-09-18T08:04:23;7.90;;;6.90;;
32094;SDS011;18608;53.688;10.748;2023-09-18T08:06:49;7.53;;;6.30;;
32094;SDS011;18608;53.688;10.748;2023-09-18T08:09:15;6.83;;;6.23;;
32094;SDS011;18608;53.688;10.748;2023-09-18T08:11:42;7.50;;;6.40;;
32094;SDS011;18608;53.688;10.748;2023-09-18T08:14:08;8.17;;;6.00;;
32094;SDS011;18608;53.688;10.748;2023-09-18T08:16:34;9.43;;;7.60;;
32094;SDS011;18608;53.688;10.748;2023-09-18T08:19:01;9.10;;;7.90;;
32094;SDS011;18608;53.688;10.748;2023-09-18T08:21:27;8.03;;;7.30;;
32094;SDS011;18608;53.688;10.748;2023-09-18T08:23:56;7.47;;;6.87;;
32094;SDS011;18608;53.688;10.748;2023-09-18T08:26:22;10.87;;;7.40;;
32094;SDS011;18608;53.688;10.748;2023-09-18T08:28:50;8.90;;;6.60;;
32094;SDS011;18608;53.688;10.748;2023-09-18T08:31:16;6.70;;;6.00;;
32094;SDS011;18608;53.688;10.748;2023-09-18T08:33:42;6.50;;;5.90;;
32094;SDS011;18608;53.688;10.748;2023-09-18T08:36:08;7.17;;;6.47;;
32094;SDS011;18608;53.688;10.748;2023-09-18T08:38:35;7.73;;;7.03;;
32094;SDS011;18608;53.688;10.748;2023-09-18T08:41:01;7.03;;;6.40;;
32094;SDS011;18608;53.688;10.748;2023-09-18T08:43:28;6.53;;;5.93;;
32094;SDS011;18608;53.688;10.748;2023-09-18T08:45:55;7.37;;;6.67;;
32094;SDS011;18608;53.688;10.748;2023-09-18T08:48:26;9.97;;;6.97;;
32094;SDS011;18608;53.688;10.748;2023-09-18T08:51:03;9.53;;;6.13;;
32094;SDS011;18608;53.688;10.748;2023-09-18T08:53:31;9.83;;;7.07;;
32094;SDS011;18608;53.688;10.748;2023-09-18T08:55:58;7.50;;;6.50;;
32094;SDS011;18608;53.688;10.748;2023-09-18T08:58:27;6.93;;;6.33;;
32094;SDS011;18608;53.688;10.748;2023-09-18T09:00:56;7.33;;;6.50;;
32094;SDS011;18608;53.688;10.748;2023-09-18T09:03:23;7.90;;;6.60;;
32094;SDS011;18608;53.688;10.748;2023-09-18T09:05:49;8.50;;;6.10;;
32094;SDS011;18608;53.688;10.748;2023-09-18T09:08:15;11.70;;;6.57;;
32094;SDS011;18608;53.688;10.748;2023-09-18T09:10:41;9.57;;;5.93;;
32094;SDS011;18608;53.688;10.748;2023-09-18T09:13:07;10.90;;;5.97;;
32094;SDS011;18608;53.688;10.748;2023-09-18T09:15:46;7.87;;;6.03;;
32094;SDS011;18608;53.688;10.748;2023-09-18T09:18:12;7.33;;;6.10;;
32094;SDS011;18608;53.688;10.748;2023-09-18T09:21:03;11.13;;;6.40;;
32094;SDS011;18608;53.688;10.748;2023-09-18T09:23:42;7.63;;;6.50;;
32094;SDS011;18608;53.688;10.748;2023-09-18T09:26:13;7.03;;;6.33;;
32094;SDS011;18608;53.688;10.748;2023-09-18T09:28:40;7.50;;;6.60;;
32094;SDS011;18608;53.688;10.748;2023-09-18T09:31:08;7.30;;;5.80;;
32094;SDS011;18608;53.688;10.748;2023-09-18T09:33:35;7.77;;;6.27;;
32094;SDS011;18608;53.688;10.748;2023-09-18T09:36:04;6.63;;;6.03;;
32094;SDS011;18608;53.688;10.748;2023-09-18T09:38:31;9.80;;;6.37;;
32094;SDS011;18608;53.688;10.748;2023-09-18T09:40:59;10.60;;;5.57;;
32094;SDS011;18608;53.688;10.748;2023-09-18T09:43:31;6.07;;;5.47;;
32094;SDS011;18608;53.688;10.748;2023-09-18T09:45:59;7.23;;;6.13;;
32094;SDS011;18608;53.688;10.748;2023-09-18T09:48:28;7.30;;;6.30;;
32094;SDS011;18608;53.688;10.748;2023-09-18T09:50:59;7.23;;;6.07;;
32094;SDS011;18608;53.688;10.748;2023-09-18T09:53:41;6.83;;;6.10;;
32094;SDS011;18608;53.688;10.748;2023-09-18T09:56:08;7.40;;;5.70;;
32094;SDS011;18608;53.688;10.748;2023-09-18T09:58:34;7.80;;;6.93;;
32094;SDS011;18608;53.688;10.748;2023-09-18T10:01:02;8.87;;;6.23;;
32094;SDS011;18608;53.688;10.748;2023-09-18T10:03:33;9.57;;;6.07;;
32094;SDS011;18608;53.688;10.748;2023-09-18T10:06:01;6.50;;;5.80;;
32094;SDS011;18608;53.688;10.748;2023-09-18T10:08:29;8.10;;;5.90;;
32094;SDS011;18608;53.688;10.748;2023-09-18T10:11:04;13.43;;;6.30;;
32094;SDS011;18608;53.688;10.748;2023-09-18T10:13:35;5.73;;;5.23;;
32094;SDS011;18608;53.688;10.748;2023-09-18T10:16:11;10.33;;;6.23;;
32094;SDS011;18608;53.688;10.748;2023-09-18T10:29:24;14.60;;;6.13;;
32094;SDS011;18608;53.688;10.748;2023-09-18T10:31:51;10.13;;;5.73;;
32094;SDS011;18608;53.688;10.748;2023-09-18T10:34:18;6.93;;;6.37;;
32094;SDS011;18608;53.688;10.748;2023-09-18T10:36:48;8.53;;;5.60;;
32094;SDS011;18608;53.688;10.748;2023-09-18T10:39:15;7.40;;;5.53;;
32094;SDS011;18608;53.688;10.748;2023-09-18T10:41:48;9.07;;;6.63;;
32094;SDS011;18608;53.688;10.748;2023-09-18T10:44:16;7.07;;;6.30;;
32094;SDS011;18608;53.688;10.748;2023-09-18T10:46:43;6.83;;;5.67;;
32094;SDS011;18608;53.688;10.748;2023-09-18T10:49:10;6.30;;;5.70;;
32094;SDS011;18608;53.688;10.748;2023-09-18T10:51:37;9.93;;;6.53;;
32094;SDS011;18608;53.688;10.748;2023-09-18T10:54:07;8.30;;;5.30;;
32094;SDS011;18608;53.688;10.748;2023-09-18T10:56:33;8.13;;;6.10;;
32094;SDS011;18608;53.688;10.748;2023-09-18T10:59:00;9.10;;;5.67;;
32094;SDS011;18608;53.688;10.748;2023-09-18T11:01:29;7.50;;;5.10;;
32094;SDS011;18608;53.688;10.748;2023-09-18T11:03:58;12.37;;;6.33;;
32094;SDS011;18608;53.688;10.748;2023-09-18T11:06:28;8.50;;;5.33;;
32094;SDS011;18608;53.688;10.748;2023-09-18T11:09:07;8.67;;;5.40;;
32094;SDS011;18608;53.688;10.748;2023-09-18T11:11:34;7.60;;;5.97;;
32094;SDS011;18608;53.688;10.748;2023-09-18T11:14:00;5.80;;;5.20;;
32094;SDS011;18608;53.688;10.748;2023-09-18T11:21:25;14.37;;;6.03;;
32094;SDS011;18608;53.688;10.748;2023-09-18T11:26:53;14.30;;;6.33;;
32094;SDS011;18608;53.688;10.748;2023-09-18T11:29:22;6.93;;;5.53;;
32094;SDS011;18608;53.688;10.748;2023-09-18T11:34:19;11.10;;;5.97;;
32094;SDS011;18608;53.688;10.748;2023-09-18T11:36:47;7.90;;;5.53;;
32094;SDS011;18608;53.688;10.748;2023-09-18T11:39:13;5.67;;;5.10;;
32094;SDS011;18608;53.688;10.748;2023-09-18T11:42:06;13.17;;;6.00;;
32094;SDS011;18608;53.688;10.748;2023-09-18T11:44:32;17.33;;;5.40;;
32094;SDS011;18608;53.688;10.748;2023-09-18T11:46:58;12.43;;;5.50;;
32094;SDS011;18608;53.688;10.748;2023-09-18T11:49:25;6.70;;;5.90;;
32094;SDS011;18608;53.688;10.748;2023-09-18T11:51:52;8.60;;;4.83;;
32094;SDS011;18608;53.688;10.748;2023-09-18T11:54:18;9.47;;;5.70;;
32094;SDS011;18608;53.688;10.748;2023-09-18T11:56:44;9.40;;;5.23;;
32094;SDS011;18608;53.688;10.748;2023-09-18T11:59:11;6.93;;;5.37;;
32094;SDS011;18608;53.688;10.748;2023-09-18T12:01:38;13.73;;;4.50;;
32094;SDS011;18608;53.688;10.748;2023-09-18T12:04:11;12.63;;;5.10;;
32094;SDS011;18608;53.688;10.748;2023-09-18T12:06:40;10.77;;;5.00;;
32094;SDS011;18608;53.688;10.748;2023-09-18T12:09:07;5.67;;;5.17;;
32094;SDS011;18608;53.688;10.748;2023-09-18T12:11:33;8.27;;;5.67;;
32094;SDS011;18608;53.688;10.748;2023-09-18T12:14:00;14.23;;;5.73;;
32094;SDS011;18608;53.688;10.748;2023-09-18T12:16:27;11.30;;;4.10;;
32094;SDS011;18608;53.688;10.748;2023-09-18T12:18:53;9.10;;;4.63;;
32094;SDS011;18608;53.688;10.748;2023-09-18T12:21:19;10.03;;;6.00;;
32094;SDS011;18608;53.688;10.748;2023-09-18T12:23:45;8.90;;;5.20;;
32094;SDS011;18608;53.688;10.748;2023-09-18T12:26:12;6.10;;;4.83;;
32094;SDS011;18608;53.688;10.748;2023-09-18T12:28:39;10.33;;;5.70;;
32094;SDS011;18608;53.688;10.748;2023-09-18T12:31:06;12.07;;;5.30;;
32094;SDS011;18608;53.688;10.748;2023-09-18T12:33:36;6.90;;;4.40;;
32094;SDS011;18608;53.688;10.748;2023-09-18T12:36:03;5.93;;;5.07;;
32094;SDS011;18608;53.688;10.748;2023-09-18T12:38:30;9.77;;;6.07;;
32094;SDS011;18608;53.688;10.748;2023-09-18T12:40:56;11.90;;;5.03;;
32094;SDS011;18608;53.688;10.748;2023-09-18T12:43:31;8.70;;;4.90;;
32094;SDS011;18608;53.688;10.748;2023-09-18T12:46:01;5.43;;;4.97;;
32094;SDS011;18608;53.688;10.748;2023-09-18T12:48:29;10.03;;;5.57;;
32094;SDS011;18608;53.688;10.748;2023-09-18T12:50:55;14.43;;;4.70;;
32094;SDS011;18608;53.688;10.748;2023-09-18T12:53:22;5.87;;;4.57;;
32094;SDS011;18608;53.688;10.748;2023-09-18T12:55:48;7.13;;;4.60;;
32094;SDS011;18608;53.688;10.748;2023-09-18T12:58:18;14.17;;;5.13;;
32094;SDS011;18608;53.688;10.748;2023-09-18T13:00:48;7.80;;;5.37;;
32094;SDS011;18608;53.688;10.748;2023-09-18T13:03:14;5.23;;;4.73;;
32094;SDS011;18608;53.688;10.748;2023-09-18T13:05:40;7.90;;;4.53;;
32094;SDS011;18608;53.688;10.748;2023-09-18T13:08:06;7.00;;;4.93;;
32094;SDS011;18608;53.688;10.748;2023-09-18T13:10:46;6.90;;;4.80;;
32094;SDS011;18608;53.688;10.748;2023-09-18T13:13:17;6.60;;;5.20;;
32094;SDS011;18608;53.688;10.748;2023-09-18T13:15:47;9.97;;;4.70;;
32094;SDS011;18608;53.688;10.748;2023-09-18T13:18:14;18.93;;;5.03;;
32094;SDS011;18608;53.688;10.748;2023-09-18T13:20:41;10.00;;;4.70;;
32094;SDS011;18608;53.688;10.748;2023-09-18T13:23:07;9.80;;;4.90;;
32094;SDS011;18608;53.688;10.748;2023-09-18T13:25:34;6.50;;;4.50;;
32094;SDS011;18608;53.688;10.748;2023-09-18T13:28:01;6.57;;;4.50;;
32094;SDS011;18608;53.688;10.748;2023-09-18T13:30:28;13.13;;;4.80;;
32094;SDS011;18608;53.688;10.748;2023-09-18T13:33:03;8.43;;;5.70;;
32094;SDS011;18608;53.688;10.748;2023-09-18T13:35:31;5.07;;;3.73;;
32094;SDS011;18608;53.688;10.748;2023-09-18T13:37:57;8.87;;;3.73;;
32094;SDS011;18608;53.688;10.748;2023-09-18T13:40:23;8.43;;;3.83;;
32094;SDS011;18608;53.688;10.748;2023-09-18T13:42:50;4.53;;;3.60;;
32094;SDS011;18608;53.688;10.748;2023-09-18T13:45:16;4.90;;;3.30;;
32094;SDS011;18608;53.688;10.748;2023-09-18T13:47:42;5.53;;;3.70;;
32094;SDS011;18608;53.688;10.748;2023-09-18T13:50:09;10.40;;;4.30;;
32094;SDS011;18608;53.688;10.748;2023-09-18T13:52:35;8.63;;;4.00;;
32094;SDS011;18608;53.688;10.748;2023-09-18T13:55:02;10.33;;;3.77;;
32094;SDS011;18608;53.688;10.748;2023-09-18T13:57:30;10.07;;;4.07;;
32094;SDS011;18608;53.688;10.748;2023-09-18T13:59:56;6.60;;;3.40;;
32094;SDS011;18608;53.688;10.748;2023-09-18T14:02:22;5.13;;;3.77;;
32094;SDS011;18608;53.688;10.748;2023-09-18T14:04:52;11.73;;;4.30;;
32094;SDS011;18608;53.688;10.748;2023-09-18T14:07:18;6.50;;;3.63;;
32094;SDS011;18608;53.688;10.748;2023-09-18T14:09:44;6.17;;;3.37;;
32094;SDS011;18608;53.688;10.748;2023-09-18T14:12:11;12.60;;;3.00;;
32094;SDS011;18608;53.688;10.748;2023-09-18T14:14:37;3.50;;;3.13;;
32094;SDS011;18608;53.688;10.748;2023-09-18T14:17:05;4.70;;;2.83;;
32094;SDS011;18608;53.688;10.748;2023-09-18T14:19:31;6.40;;;3.00;;
32094;SDS011;18608;53.688;10.748;2023-09-18T14:21:57;6.63;;;3.50;;
32094;SDS011;18608;53.688;10.748;2023-09-18T14:24:28;7.87;;;3.37;;
32094;SDS011;18608;53.688;10.748;2023-09-18T14:26:54;7.37;;;2.20;;
32094;SDS011;18608;53.688;10.748;2023-09-18T14:29:20;8.13;;;3.77;;
32094;SDS011;18608;53.688;10.748;2023-09-18T14:31:46;7.87;;;5.10;;
32094;SDS011;18608;53.688;10.748;2023-09-18T14:34:12;4.03;;;2.80;;
32094;SDS011;18608;53.688;10.748;2023-09-18T14:36:38;4.80;;;2.40;;
32094;SDS011;18608;53.688;10.748;2023-09-18T14:39:05;5.57;;;2.73;;
32094;SDS011;18608;53.688;10.748;2023-09-18T14:41:37;3.30;;;3.00;;
32094;SDS011;18608;53.688;10.748;2023-09-18T14:44:04;3.57;;;2.40;;
32094;SDS011;18608;53.688;10.748;2023-09-18T14:46:31;3.47;;;2.50;;
32094;SDS011;18608;53.688;10.748;2023-09-18T14:49:00;3.57;;;3.27;;
32094;SDS011;18608;53.688;10.748;2023-09-18T14:51:26;12.30;;;3.43;;
32094;SDS011;18608;53.688;10.748;2023-09-18T14:53:57;2.90;;;2.40;;
32094;SDS011;18608;53.688;10.748;2023-09-18T14:56:23;5.07;;;2.77;;